Fountain, Colorado
Current Conditions -  °F | °C
As of 6:31 AM on Sunday 23 Nov 2014 (Local Time) from KFCS Reporting Station
Broken Clouds Broken Clouds  
Wind Chill: 19°   Ceiling: 2300
Heat Index: 32°   Visibility: 10mi
Dew Point: 27°   Wind: 22mph
Humidity: 80%   Direction: 360°N
Pressure: 29.71"   Gusts: 28mph
Location:  38.68°N, 104.7°W
Report Text: KFCS 231331Z AUTO 36019G24KT 10SM BKN023 00/M03 A2971 RMK AO2 SNB1314E1326RAE1331 BKN V OVC
Loading
Personal Weather Stations






























Interactive Weather Map New forecast layout! Learn more

10-Day Weather Forecast

Advertisements
Track Severe Weather on mobile